LIPL/QBS METAR and TAF weather

Enter ICAO airport designator
Station Type Date Time Source
LIPL METAR 2019/08/24 05:55 UTC NOAA

LIPL 240555Z 29002KT 9999 SCT050 SCT080 23/21 Q1019 RMK BKN VIS MIN 9999 WIND THR31 10001KT WIND THR13 26002KT BLU


Station Type Date Time Source
LIPL Decoded METAR 2019/08/24 05:55 UTC NOAA

Station name not available
Aug 24, 2019 - 01:55 AM EDT / 2019.08.24 0555 UTC
Wind: from the WNW (290 degrees) at 2 MPH (2 KT):0
Visibility: greater than 7 mile(s):0
Sky conditions: partly cloudy
Temperature: 73 F (23 C)
Dew Point: 69 F (21 C)
Relative Humidity: 88%
Pressure (altimeter): 30.09 in. Hg (1019 hPa)
ob: LIPL 240555Z 29002KT 9999 SCT050 SCT080 23/21 Q1019 RMK BKN VIS MIN 9999 WIND THR31 10001KT WIND THR13 26002KT BLU
cycle: 6

Station Type Date Time Source
LIPL TAF 2019/07/15 15:33 UTC NOAA

TAF TAF LIPL 151400Z 1515/1603 VRB03KT 9999 SCT040

Example: see airport list